6.600 kWh

EHAM AMSTERDAM/SCHIPHOL NLD -3 m.
METAR EHAM 182125Z 29002KT CAVOK 03/01 Q1023 NOSIG

EHAM AMSTERDAM/SCHIPHOL NLD -3 m.
TAF EHAM 181705Z 1818/1924 28007KT 9999 FEW025
BECMG 1818/1821 20003KT
PROB30 1902/1907 4000 MIFG BR
BECMG 1910/1913 27008KT